createdAt,value
2022-11-07T00:01:50.044Z,9.41
2022-11-07T00:04:17.659Z,9.31
2022-11-07T00:06:46.660Z,9.35
2022-11-07T00:09:14.112Z,9.42
2022-11-07T00:11:41.159Z,9.46
2022-11-07T00:14:08.171Z,9.51
2022-11-07T00:16:36.880Z,9.60
2022-11-07T00:19:04.468Z,9.69
2022-11-07T00:21:31.767Z,9.80
2022-11-07T00:24:00.554Z,9.89
2022-11-07T00:26:29.860Z,9.96
2022-11-07T00:28:56.899Z,9.81
2022-11-07T00:31:23.991Z,9.71
2022-11-07T00:33:51.299Z,9.64
2022-11-07T00:36:21.905Z,9.71
2022-11-07T00:38:50.209Z,9.75
2022-11-07T00:41:20.735Z,9.78
2022-11-07T00:43:48.777Z,9.72
2022-11-07T00:46:17.629Z,9.69
2022-11-07T00:48:47.391Z,9.65
2022-11-07T00:51:17.642Z,9.67
2022-11-07T00:53:45.733Z,9.73
2022-11-07T00:56:18.889Z,9.69
2022-11-07T00:58:48.329Z,9.71
2022-11-07T01:01:19.978Z,9.73
2022-11-07T01:03:48.860Z,9.80
2022-11-07T01:06:22.802Z,9.90
2022-11-07T01:08:54.326Z,9.91
2022-11-07T01:11:22.538Z,9.86
2022-11-07T01:13:55.589Z,9.95
2022-11-07T01:16:23.377Z,10.06
2022-11-07T01:18:50.737Z,10.13
2022-11-07T01:21:20.750Z,10.19
2022-11-07T01:23:47.753Z,10.26
2022-11-07T01:26:16.557Z,10.31
2022-11-07T01:28:43.743Z,10.32
2022-11-07T01:31:16.820Z,10.36
2022-11-07T01:33:46.873Z,10.40
2022-11-07T01:36:17.430Z,10.39
2022-11-07T01:38:47.107Z,10.45
2022-11-07T01:41:18.738Z,10.43
2022-11-07T01:43:49.295Z,10.41
2022-11-07T01:46:19.123Z,10.39
2022-11-07T01:48:59.048Z,10.43
2022-11-07T01:51:29.686Z,10.46
2022-11-07T01:53:57.010Z,10.48
2022-11-07T01:56:30.631Z,10.56
2022-11-07T01:59:00.125Z,10.61
2022-11-07T02:01:28.952Z,10.60
2022-11-07T02:03:58.970Z,10.63
2022-11-07T02:06:36.755Z,10.66
2022-11-07T02:09:04.281Z,10.69
2022-11-07T02:11:31.652Z,10.72
2022-11-07T02:13:58.744Z,10.76
2022-11-07T02:16:25.946Z,10.79
2022-11-07T02:18:55.669Z,10.80
2022-11-07T02:21:38.403Z,10.80
2022-11-07T02:24:30.344Z,10.80
2022-11-07T02:27:11.837Z,10.77
2022-11-07T02:29:47.939Z,10.76
2022-11-07T02:32:20.599Z,10.73
2022-11-07T02:35:00.399Z,10.65
2022-11-07T02:37:40.026Z,10.60
2022-11-07T02:40:10.832Z,10.57
2022-11-07T02:42:40.027Z,10.48
2022-11-07T02:45:08.294Z,10.43
2022-11-07T02:47:35.151Z,10.46
2022-11-07T02:50:02.059Z,10.41
2022-11-07T02:52:28.926Z,10.44
2022-11-07T02:54:55.837Z,10.40
2022-11-07T02:57:24.185Z,10.34
2022-11-07T02:59:51.087Z,10.35
2022-11-07T03:02:18.330Z,10.34
2022-11-07T03:04:49.093Z,10.35
2022-11-07T03:07:16.817Z,10.36
2022-11-07T03:09:43.989Z,10.44
2022-11-07T03:12:11.050Z,10.53
2022-11-07T03:14:39.507Z,10.56
2022-11-07T03:17:06.336Z,10.55
2022-11-07T03:19:33.228Z,10.57
2022-11-07T03:22:00.465Z,10.64
2022-11-07T03:24:27.995Z,10.71
2022-11-07T03:26:55.321Z,10.73
2022-11-07T03:29:25.537Z,10.79
2022-11-07T03:31:53.816Z,10.84
2022-11-07T03:34:21.145Z,10.90
2022-11-07T03:36:48.045Z,10.93
2022-11-07T03:39:14.886Z,10.97
2022-11-07T03:41:41.727Z,10.95
2022-11-07T03:44:08.629Z,10.94
2022-11-07T03:46:35.760Z,10.95
2022-11-07T03:49:04.003Z,10.98
2022-11-07T03:51:31.257Z,11.01
2022-11-07T03:53:58.136Z,11.03
2022-11-07T03:56:25.291Z,11.02
2022-11-07T03:58:52.314Z,11.01
2022-11-07T04:01:19.733Z,11.03
2022-11-07T04:03:46.995Z,11.01
2022-11-07T04:06:15.607Z,11.05
2022-11-07T04:08:42.834Z,11.04
2022-11-07T04:11:10.314Z,11.05
2022-11-07T04:13:38.193Z,11.07
2022-11-07T04:16:05.593Z,11.10
2022-11-07T04:18:33.174Z,11.08
2022-11-07T04:21:00.046Z,11.10
2022-11-07T04:23:28.194Z,11.15
2022-11-07T04:25:55.607Z,11.13
2022-11-07T04:28:22.769Z,11.17
2022-11-07T04:30:49.941Z,11.17
2022-11-07T04:33:17.539Z,11.12
2022-11-07T04:35:44.853Z,11.17
2022-11-07T04:38:11.801Z,11.21
2022-11-07T04:40:40.306Z,11.23
2022-11-07T04:43:07.494Z,11.25
2022-11-07T04:45:34.694Z,11.25
2022-11-07T04:48:01.750Z,11.25
2022-11-07T04:50:29.125Z,11.26
2022-11-07T04:52:56.295Z,11.27
2022-11-07T04:55:26.168Z,11.27
2022-11-07T04:57:54.630Z,11.26
2022-11-07T05:00:21.699Z,11.24
2022-11-07T05:02:50.355Z,11.23
2022-11-07T05:05:25.787Z,11.22
2022-11-07T05:07:52.971Z,11.22
2022-11-07T05:10:22.748Z,11.23
2022-11-07T05:14:39.344Z,11.24
2022-11-07T05:17:06.634Z,11.16
2022-11-07T05:19:33.517Z,11.15
2022-11-07T05:22:00.683Z,11.17
2022-11-07T05:24:27.492Z,11.15
2022-11-07T05:26:54.418Z,11.17
2022-11-07T05:29:22.515Z,11.19
2022-11-07T05:31:49.310Z,11.22
2022-11-07T05:34:16.270Z,11.24
2022-11-07T05:36:43.431Z,11.23
2022-11-07T05:39:10.210Z,11.17
2022-11-07T05:41:37.015Z,11.12
2022-11-07T05:44:04.528Z,11.04
2022-11-07T05:46:32.775Z,11.03
2022-11-07T05:49:01.067Z,11.05
2022-11-07T05:51:28.101Z,11.05
2022-11-07T05:53:58.501Z,11.04
2022-11-07T05:56:25.290Z,10.87
2022-11-07T05:58:52.045Z,10.75
2022-11-07T06:01:19.021Z,10.74
2022-11-07T06:03:47.168Z,10.73
2022-11-07T06:06:13.875Z,10.74
2022-11-07T06:08:40.880Z,10.76
2022-11-07T06:11:07.784Z,10.72
2022-11-07T06:13:34.555Z,10.70
2022-11-07T06:16:01.459Z,10.74
2022-11-07T06:18:28.302Z,10.65
2022-11-07T06:20:56.434Z,10.63
2022-11-07T06:23:26.409Z,10.60
2022-11-07T06:25:53.337Z,10.58
2022-11-07T06:37:20.489Z,10.76
2022-11-07T06:39:47.780Z,10.81
2022-11-07T06:42:14.542Z,10.81
2022-11-07T06:44:41.513Z,10.90
2022-11-07T06:47:08.229Z,10.88
2022-11-07T06:49:35.015Z,10.89
2022-11-07T06:56:25.587Z,11.04
2022-11-07T06:58:52.507Z,11.06
2022-11-07T07:01:19.299Z,11.05
2022-11-07T07:03:46.440Z,11.10
2022-11-07T07:06:16.125Z,11.29
2022-11-07T07:08:44.294Z,11.32
2022-11-07T07:15:55.144Z,12.09
2022-11-07T07:18:23.619Z,12.37
2022-11-07T07:21:16.365Z,12.10
2022-11-07T07:23:43.254Z,11.77
2022-11-07T07:26:14.171Z,11.57
2022-11-07T07:32:52.538Z,11.39
2022-11-07T07:35:19.459Z,11.45
2022-11-07T07:37:49.896Z,11.43
2022-11-07T07:40:16.823Z,11.40
2022-11-07T07:42:44.787Z,11.50
2022-11-07T07:45:14.675Z,11.60
2022-11-07T07:47:42.638Z,11.85
2022-11-07T08:04:06.004Z,13.05
2022-11-07T08:06:33.328Z,13.31
2022-11-07T08:09:03.267Z,13.58
2022-11-07T08:11:30.834Z,13.79
2022-11-07T08:14:01.209Z,13.91
2022-11-07T08:16:30.520Z,14.00
2022-11-07T08:19:15.172Z,14.02
2022-11-07T08:21:44.115Z,13.99
2022-11-07T08:24:10.872Z,13.96
2022-11-07T08:26:38.080Z,13.84
2022-11-07T08:29:05.476Z,13.75
2022-11-07T08:31:32.562Z,13.73
2022-11-07T08:34:00.105Z,13.32
2022-11-07T08:36:28.796Z,13.27
2022-11-07T08:38:56.077Z,13.44
2022-11-07T08:41:22.873Z,13.53
2022-11-07T08:43:50.016Z,13.51
2022-11-07T08:46:16.744Z,13.44
2022-11-07T08:48:43.916Z,13.28
2022-11-07T08:51:10.663Z,13.34
2022-11-07T08:53:38.958Z,13.59
2022-11-07T08:56:09.043Z,13.34
2022-11-07T08:58:37.256Z,13.32
2022-11-07T09:01:06.399Z,13.47
2022-11-07T09:03:46.253Z,13.36
2022-11-07T09:06:14.629Z,13.53
2022-11-07T09:08:43.381Z,13.77
2022-11-07T09:11:10.926Z,13.77
2022-11-07T09:13:37.815Z,13.99
2022-11-07T09:16:08.382Z,14.23
2022-11-07T09:18:35.358Z,14.62
2022-11-07T09:21:02.121Z,14.55
2022-11-07T09:23:29.624Z,13.96
2022-11-07T09:26:00.126Z,14.03
2022-11-07T09:28:27.581Z,13.86
2022-11-07T09:30:56.054Z,13.77
2022-11-07T09:33:23.884Z,13.72
2022-11-07T09:35:51.656Z,13.69
2022-11-07T09:38:18.503Z,13.70
2022-11-07T09:40:55.935Z,13.66
2022-11-07T09:43:47.404Z,13.72
2022-11-07T09:46:33.130Z,13.71
2022-11-07T09:49:13.637Z,13.76
2022-11-07T09:51:47.515Z,13.84
2022-11-07T09:54:21.400Z,13.76
2022-11-07T09:56:48.282Z,13.74
2022-11-07T09:59:24.745Z,13.75
2022-11-07T10:01:52.073Z,13.82
2022-11-07T10:04:26.629Z,13.85
2022-11-07T10:07:04.078Z,13.82
2022-11-07T10:09:44.145Z,13.95
2022-11-07T10:12:34.148Z,14.06
2022-11-07T10:15:17.907Z,14.17
2022-11-07T10:17:59.346Z,14.24
2022-11-07T10:20:49.206Z,14.26
2022-11-07T10:23:40.371Z,14.31
2022-11-07T10:26:10.856Z,14.29
2022-11-07T10:28:46.345Z,14.30
2022-11-07T10:31:16.029Z,14.38
2022-11-07T10:33:53.123Z,14.40
2022-11-07T10:36:27.893Z,14.46
2022-11-07T10:38:55.019Z,14.48
2022-11-07T10:45:15.698Z,14.55
2022-11-07T10:47:56.588Z,14.64
2022-11-07T10:50:24.796Z,14.62
2022-11-07T10:52:55.103Z,14.71
2022-11-07T10:55:23.864Z,14.68
2022-11-07T10:57:57.612Z,14.68
2022-11-07T11:00:27.234Z,14.66
2022-11-07T11:03:29.025Z,14.71
2022-11-07T11:06:21.427Z,14.78
2022-11-07T11:08:52.496Z,14.88
2022-11-07T11:11:30.717Z,14.80
2022-11-07T11:14:09.688Z,14.95
2022-11-07T11:16:40.063Z,15.05
2022-11-07T11:19:22.214Z,15.22
2022-11-07T11:21:53.306Z,15.24
2022-11-07T11:24:31.908Z,15.24
2022-11-07T11:27:04.769Z,15.30
2022-11-07T11:29:42.491Z,15.23
2022-11-07T11:32:21.257Z,15.17
2022-11-07T11:35:07.918Z,15.38
2022-11-07T11:37:42.519Z,15.40
2022-11-07T11:40:18.251Z,15.39
2022-11-07T11:42:59.785Z,15.52
2022-11-07T11:45:41.243Z,15.52
2022-11-07T11:48:28.678Z,15.65
2022-11-07T11:51:03.689Z,15.73
2022-11-07T11:53:31.127Z,15.72
2022-11-07T11:56:24.159Z,15.74
2022-11-07T11:59:14.638Z,15.98
2022-11-07T12:01:56.962Z,16.11
2022-11-07T12:04:44.058Z,16.41
2022-11-07T12:07:38.697Z,16.74
2022-11-07T12:10:16.916Z,16.79
2022-11-07T12:13:01.586Z,16.74
2022-11-07T12:15:44.544Z,16.75
2022-11-07T12:18:24.376Z,16.60
2022-11-07T12:21:08.654Z,16.55
2022-11-07T12:24:02.092Z,16.73
2022-11-07T12:26:37.954Z,16.83
2022-11-07T12:29:27.448Z,17.00
2022-11-07T12:32:13.308Z,17.25
2022-11-07T12:35:16.514Z,17.54
2022-11-07T12:38:57.786Z,18.00
2022-11-07T12:41:58.943Z,18.19
2022-11-07T12:45:00.963Z,18.35
2022-11-07T12:47:54.165Z,18.16
2022-11-07T12:50:39.685Z,18.10
2022-11-07T12:53:40.870Z,18.00
2022-11-07T12:56:15.001Z,17.85
2022-11-07T12:58:47.140Z,17.79
2022-11-07T13:01:20.138Z,17.80
2022-11-07T13:04:10.846Z,17.87
2022-11-07T13:06:48.685Z,17.91
2022-11-07T13:09:31.237Z,17.98
2022-11-07T13:12:11.169Z,17.82
2022-11-07T13:14:43.233Z,17.78
2022-11-07T13:17:17.438Z,17.66
2022-11-07T13:19:57.488Z,17.66
2022-11-07T13:22:33.931Z,17.45
2022-11-07T13:25:24.166Z,17.23
2022-11-07T13:28:23.534Z,16.98
2022-11-07T13:31:02.300Z,17.11
2022-11-07T13:33:36.632Z,17.06
2022-11-07T13:36:25.260Z,17.12
2022-11-07T13:39:01.162Z,17.04
2022-11-07T13:41:43.748Z,17.03
2022-11-07T13:44:27.637Z,16.94
2022-11-07T13:47:01.175Z,16.95
2022-11-07T13:49:43.041Z,16.95
2022-11-07T13:52:19.714Z,16.95
2022-11-07T13:54:58.809Z,16.99
2022-11-07T13:57:34.757Z,17.06
2022-11-07T14:00:10.732Z,17.10
2022-11-07T14:02:52.784Z,17.09
2022-11-07T14:05:25.304Z,17.11
2022-11-07T14:08:02.547Z,17.05
2022-11-07T14:10:46.949Z,17.05
2022-11-07T14:13:23.018Z,17.04
2022-11-07T14:15:55.304Z,17.10
2022-11-07T14:18:28.422Z,16.94
2022-11-07T14:20:58.704Z,16.82
2022-11-07T14:23:28.543Z,16.79
2022-11-07T14:25:59.903Z,16.62
2022-11-07T14:28:35.251Z,16.64
2022-11-07T14:31:05.644Z,16.63
2022-11-07T14:33:48.010Z,16.63
2022-11-07T14:36:18.011Z,16.59
2022-11-07T14:40:56.556Z,16.54
2022-11-07T14:41:42.914Z,16.35
2022-11-07T14:44:20.589Z,16.28
2022-11-07T14:46:50.016Z,16.26
2022-11-07T14:49:26.765Z,16.15
2022-11-07T14:51:56.039Z,16.17
2022-11-07T14:54:31.578Z,16.17
2022-11-07T14:57:00.830Z,16.07
2022-11-07T14:59:28.210Z,16.06
2022-11-07T15:02:05.049Z,16.00
2022-11-07T15:04:41.902Z,16.02
2022-11-07T15:07:11.658Z,15.96
2022-11-07T15:09:39.079Z,15.91
2022-11-07T15:12:15.898Z,15.81
2022-11-07T15:14:59.246Z,15.83
2022-11-07T15:17:27.271Z,15.85
2022-11-07T15:20:05.485Z,15.79
2022-11-07T15:22:38.574Z,15.63
2022-11-07T15:25:32.657Z,15.48
2022-11-07T15:28:15.244Z,15.37
2022-11-07T15:30:44.896Z,15.27
2022-11-07T15:33:15.611Z,15.18
2022-11-07T15:36:01.102Z,15.25
2022-11-07T15:38:29.870Z,15.28
2022-11-07T15:40:56.772Z,15.27
2022-11-07T16:06:46.333Z,14.86
2022-11-07T16:09:24.618Z,14.79
2022-11-07T16:11:51.689Z,14.83
2022-11-07T16:17:15.441Z,14.75
2022-11-07T16:19:43.017Z,14.60
2022-11-07T16:22:15.358Z,14.59
2022-11-07T16:24:52.032Z,14.67
2022-11-07T16:27:28.487Z,14.68
2022-11-07T16:29:58.229Z,14.67
2022-11-07T16:32:25.171Z,14.50
2022-11-07T16:34:51.889Z,14.38
2022-11-07T16:37:20.057Z,14.31
2022-11-07T16:39:59.384Z,14.32
2022-11-07T16:42:26.810Z,14.30
2022-11-07T16:45:13.856Z,14.21
2022-11-07T16:51:22.914Z,14.04
2022-11-07T16:53:55.301Z,13.98
2022-11-07T16:56:26.687Z,13.94
2022-11-07T16:58:54.053Z,13.97
2022-11-07T17:01:28.476Z,13.95
2022-11-07T17:03:59.070Z,13.95
2022-11-07T17:06:34.279Z,13.85
2022-11-07T17:09:12.146Z,13.77
2022-11-07T17:11:40.466Z,13.69
2022-11-07T17:14:07.535Z,13.64
2022-11-07T17:16:35.480Z,13.60
2022-11-07T17:19:15.136Z,13.64
2022-11-07T17:21:54.565Z,13.63
2022-11-07T17:24:55.458Z,13.65
2022-11-07T17:27:32.105Z,13.52
2022-11-07T17:30:02.011Z,13.57
2022-11-07T17:32:30.271Z,13.55
2022-11-07T17:35:25.576Z,13.62
2022-11-07T17:37:44.545Z,13.65
2022-11-07T17:40:25.434Z,13.71
2022-11-07T17:42:52.655Z,13.58
2022-11-07T17:45:19.838Z,13.62
2022-11-07T17:52:21.209Z,13.67
2022-11-07T18:00:48.187Z,13.69
2022-11-07T18:12:05.772Z,13.43
2022-11-07T18:14:52.107Z,13.49
2022-11-07T18:17:20.661Z,13.50
2022-11-07T18:19:48.041Z,13.49
2022-11-07T18:22:21.165Z,13.49
2022-11-07T18:24:48.324Z,13.46
2022-11-07T18:28:40.258Z,13.46
2022-11-07T18:31:11.134Z,13.48
2022-11-07T18:33:43.456Z,13.50
2022-11-07T18:36:14.491Z,13.51
2022-11-07T18:38:56.349Z,13.56
2022-11-07T18:41:23.829Z,13.53
2022-11-07T18:43:51.222Z,13.55
2022-11-07T18:46:18.981Z,13.51
2022-11-07T18:48:47.507Z,13.45
2022-11-07T18:51:25.505Z,13.35
2022-11-07T18:53:56.002Z,13.31
2022-11-07T18:56:26.791Z,13.31
2022-11-07T18:58:55.569Z,13.33
2022-11-07T19:01:29.035Z,13.37
2022-11-07T19:04:04.445Z,13.36
2022-11-07T19:06:33.107Z,13.39
2022-11-07T19:09:00.524Z,13.45
2022-11-07T19:11:30.649Z,13.44
2022-11-07T19:14:01.740Z,13.31
2022-11-07T19:16:33.169Z,13.28
2022-11-07T19:19:12.387Z,13.26
2022-11-07T19:21:43.591Z,13.23
2022-11-07T19:24:10.870Z,13.18
2022-11-07T19:26:37.790Z,13.21
2022-11-07T19:29:05.492Z,13.21
2022-11-07T19:31:34.962Z,13.14
2022-11-07T19:34:03.175Z,13.14
2022-11-07T19:36:31.627Z,13.11
2022-11-07T19:38:58.615Z,13.10
2022-11-07T19:41:26.816Z,13.13
2022-11-07T19:43:53.914Z,12.99
2022-11-07T19:46:22.844Z,12.96
2022-11-07T19:48:51.791Z,12.99
2022-11-07T19:51:22.621Z,12.98
2022-11-07T19:53:58.875Z,12.95
2022-11-07T19:56:29.758Z,12.93
2022-11-07T19:59:07.549Z,12.93
2022-11-07T20:02:25.835Z,12.89
2022-11-07T20:04:53.572Z,12.85
2022-11-07T20:07:20.612Z,12.83
2022-11-07T20:13:57.402Z,12.78
2022-11-07T20:16:35.277Z,12.73
2022-11-07T20:19:04.230Z,12.67
2022-11-07T20:21:31.422Z,12.63
2022-11-07T20:23:59.694Z,12.60
2022-11-07T20:26:29.806Z,12.55
2022-11-07T21:00:24.213Z,11.72
2022-11-07T21:02:51.602Z,11.74
2022-11-07T21:05:18.796Z,11.70
2022-11-07T21:08:01.822Z,11.71
2022-11-07T21:10:28.978Z,11.77
2022-11-07T21:12:56.258Z,11.75
2022-11-07T21:15:28.306Z,11.83
